Hauptseite
METAR-TAF:

METAR-TAF

Flughäfen :

Militärflugplatz Luxeuil-Saint Sauveur

Luxeuil-les-Bains, Frankreich

Breite: 47-47N, Länge: 006-21E, Höhe: 278 m

Beobachtung

Neuester Wetterbericht von vor 22 Minuten, um 02:30 UTC
Wind 2 kt aus unterschiedlichen Richtungen
Temperatur 14°C
Luftfeuchtigkeit 88%
Luftdruck 1018 hPa
Sichtweite 10 km oder mehr

METAR: LFSX 180230Z AUTO VRB02KT 9999 NCD 14/12 Q1018

Zeit: 04:52 (02:52 UTC)

Prognose

Neuester Wetterbericht von vor 6 Stunden und 52 Minuten, um 20:00 UTC
Gültige Prognose vom 17 um 21 UTC bis 18 um 21 UTC
Wind 2 kt aus unterschiedlichen Richtungen
Sichtweite 10 km oder mehr
keine Wolken unter 1500 m und keine Kumulonimbus oder Gewitterwolken

TAF: LFSX 172000Z 1721/1821 VRB02KT CAVOK

Wetterbeobachtungen und Prognosen von mehr als 4000 Flughäfen (METAR und TAF Bericht).

Die verfügbaren Stationen werden durch gelbe und rote Markierungen auf der Karte dargestellt.

Führen Sie die Maus auf sie, um den Namen der Station zu sehen.

Darauf klicken, um die Beobachtung von Wetterbeobachtungen und Prognosen zu sehen.

Um die Karte zu ändern : klicken Sie auf den grünen Tasten mit einem schwarzen Kreuz Zum Vergrößern, auf den grünen Button mit einem Gedankenstrich zu verkleinern, oder auf die grünen Pfeile für benachbarte Karten.


METAR-TAF: